Parkdale, Arkansas
Current Conditions -  °F | °C
As of 11:35 PM on Saturday 22 Nov 2014 (Local Time) from KBQP Reporting Station
Moderate Rain Moderate Rain  
Wind Chill: 60°   Ceiling: 5000
Heat Index: 60°   Visibility: 10mi
Dew Point: 53°   Wind: 5mph
Humidity: 79%   Direction: 120°ESE
Pressure: 29.87"   Gusts: NA
Location:  33.12°N, 91.55°W
Report Text: KBQP 230535Z AUTO 12004KT 10SM RA SCT044 BKN050 OVC060 15/12 A2987 RMK AO2 T01540117
Loading
Personal Weather Stations






























Interactive Weather Map New forecast layout! Learn more

10-Day Weather Forecast

Advertisements
Track Severe Weather on mobile